Lambertville, Michigan
Current Conditions -  °F | °C
As of 4:34 AM on Wednesday 22 Oct 2014 (Local Time) from KDUH Reporting Station
Overcast Overcast  
Wind Chill: 39°   Ceiling: 2200
Heat Index: 45°   Visibility: 10mi
Dew Point: 37°   Wind: 10mph
Humidity: 76%   Direction: 350°N
Pressure: 30.23"   Gusts: NA
Location:  41.76°N, 83.63°W
Report Text: KDUH 220834Z AUTO 35009KT 10SM OVC022 07/03 A3023 RMK AO2
Loading
Personal Weather Stations






























Interactive Weather Map
Tropical Storm Tracking
New forecast layout! Learn more

10-Day Weather Forecast

Advertisements
Track Severe Weather on mobile